Time;durP1;ratioP1;P1;durP2;ratioP2;P2;SDS_P1;SDS_P2;PMS_P1;PMS_P2;Temp;Humidity;BMP_temperature;BMP_pressure;BME280_temperature;BME280_humidity;BME280_pressure;Samples;Min_cycle;Max_cycle;Signal;HPM_P1;HPM_P2
2022/05/21 00:03:28;;;;;;;;;;;;;;;12.63;77.3291;101838.3;;;;-81
2022/05/21 00:08:48;;;;;;;;;;;;;;;12.65;77.28809;101836.7;;;;-81
2022/05/21 00:09:51;;;;;;;9.6;1.7;;;;;;;;;;;;;-82
2022/05/21 00:13:31;;;;;;;;;;;;;;;12.67;77.39355;101837;;;;-81
2022/05/21 00:17:21;;;;;;;;;;;;;;;12.67;77.51563;101836.9;;;;-81
2022/05/21 00:22:21;;;;;;;;;;;;;;;12.66;77.26758;101831.4;;;;-82
2022/05/21 00:27:21;;;;;;;;;;;;;;;12.68;77.21484;101840.2;;;;-81
2022/05/21 00:32:19;;;;;;;;;;;;;;;12.67;77.48242;101837.3;;;;-81
2022/05/21 00:37:17;;;;;;;;;;;;;;;12.67;77.58203;101844.4;;;;-81
2022/05/21 00:39:23;;;;;;;12.3;2.5;;;;;;;;;;;;;-81
2022/05/21 00:42:17;;;;;;;;;;;;;;;12.67;77.4707;101844.3;;;;-81
2022/05/21 00:48:50;;;;;;;;;;;;;;;;;;;;;
2022/05/21 00:53:45;;;;;;;;;;;;;;;12.71;77.42383;101845.8;;;;-80
2022/05/21 01:03:46;;;;;;;;;;;;;;;12.71;77.18652;101843.6;;;;-80
2022/05/21 01:08:46;;;;;;;;;;;;;;;12.69;77.88477;101844.6;;;;-81
2022/05/21 01:09:25;;;;;;;12.5;2.7;;;;;;;;;;;;;-82
2022/05/21 01:13:46;;;;;;;;;;;;;;;12.7;77.66504;101851.2;;;;-81
2022/05/21 01:19:01;;;;;;;;;;;;;;;12.72;77.72363;101848.5;;;;-79
2022/05/21 01:24:12;;;;;;;;;;;;;;;12.7;77.86523;101845.7;;;;-80
2022/05/21 01:28:59;;;;;;;;;;;;;;;12.72;77.83496;101839.8;;;;-79
2022/05/21 01:34:09;;;;;;;;;;;;;;;12.74;78.00684;101841;;;;-79
2022/05/21 01:39:02;;;;;;;;;;;;;;;12.74;77.76074;101828.2;;;;-80
2022/05/21 01:39:49;;;;;;;13.6;2.7;;;;;;;;;;;;;-81
2022/05/21 01:50:06;;;;;;;;;;;;;;;12.73;78.00488;101835.5;;;;-80
2022/05/21 01:55:08;;;;;;;;;;;;;;;12.74;77.92871;101836.2;;;;-81
2022/05/21 02:00:07;;;;;;;;;;;;;;;12.74;77.83984;101833;;;;-81
2022/05/21 02:05:56;;;;;;;;;;;;;;;12.75;77.83984;101829.9;;;;-80
2022/05/21 02:11:04;;;;;;;;;;;;;;;12.75;77.83984;101835.3;;;;-80
2022/05/21 02:16:10;;;;;;;;;;;;;;;12.73;77.72754;101844.6;;;;-80
2022/05/21 02:20:35;;;;;;;;;;;;;;;12.71;77.66504;101850.4;;;;-80
2022/05/21 02:25:29;;;;;;;;;;;;;;;12.69;77.69629;101851.4;;;;-80
2022/05/21 02:30:27;;;;;;;;;;;;;;;12.65;77.66602;101844.8;;;;-79
2022/05/21 02:42:43;;;;;;;;;;;;;;;12.54;77.71582;101853.9;;;;-81
2022/05/21 02:47:11;;;;;;;;;;;;;;;12.53;77.6123;101858.5;;;;-80
2022/05/21 02:52:13;;;;;;;;;;;;;;;12.46;77.58984;101862.7;;;;-81
2022/05/21 02:59:13;;;;;;;;;;;;;;;12.42;77.29297;101860.3;;;;-80
2022/05/21 03:04:25;;;;;;;;;;;;;;;12.36;77.00488;101860.2;;;;-81
2022/05/21 03:14:58;;;;;;;;;;;;;;;12.26;76.73145;101867.8;;;;-82
2022/05/21 03:20:03;;;;;;;;;;;;;;;12.23;76.73633;101867.9;;;;-82
2022/05/21 03:24:58;;;;;;;;;;;;;;;12.19;76.39648;101872.1;;;;-81
2022/05/21 03:28:58;;;;;;;;;;;;;;;12.14;76.15527;101874.4;;;;-80
2022/05/21 03:33:47;;;;;;;;;;;;;;;12.11;75.80371;101875.5;;;;-81
2022/05/21 03:39:41;;;;;;;9.9;2.2;;;;;;;;;;;;;-79
2022/05/21 03:45:16;;;;;;;;;;;;;;;12;75.69629;101882.2;;;;-82
2022/05/21 03:50:16;;;;;;;;;;;;;;;11.98;75.8584;101879.6;;;;-81
2022/05/21 03:55:15;;;;;;;;;;;;;;;11.95;75.88672;101883.3;;;;-81
2022/05/21 03:59:57;;;;;;;;;;;;;;;11.93;75.66211;101887.1;;;;-80
2022/05/21 04:15:11;;;;;;;;;;;;;;;11.88;75.58691;101906.7;;;;-80
2022/05/21 04:20:15;;;;;;;;;;;;;;;;;;;;;
2022/05/21 04:31:19;;;;;;;;;;;;;;;11.91;75.08008;101919;;;;-81
2022/05/21 04:36:30;;;;;;;;;;;;;;;11.94;74.63086;101929.3;;;;-81
2022/05/21 04:39:50;;;;;;;8.6;2.1;;;;;;;;;;;;;-81
2022/05/21 04:41:14;;;;;;;;;;;;;;;11.96;74.74512;101925.8;;;;-81
2022/05/21 04:45:55;;;;;;;;;;;;;;;11.99;74.47363;101926.4;;;;-79
2022/05/21 04:50:50;;;;;;;;;;;;;;;12.01;74.49707;101932.1;;;;-79
2022/05/21 05:00:11;;;;;;;;;;;;;;;12.06;74.36035;101942;;;;-79
2022/05/21 05:05:10;;;;;;;;;;;;;;;12.07;74.20605;101944.5;;;;-81
2022/05/21 05:10:53;;;;;;;;;;;;;;;12.08;74.12012;101946.5;;;;-80
2022/05/21 05:22:09;;;;;;;;;;;;;;;12.12;73.82715;101961.1;;;;-81
2022/05/21 05:27:02;;;;;;;;;;;;;;;12.29;74.12207;101958.9;;;;-80
2022/05/21 06:07:34;;;;;;;;;;;;;;;16.13;65.61035;101980.2;;;;-82
2022/05/21 06:09:41;;;;;;;8.4;1.7;;;;;;;;;;;;;-82
2022/05/21 06:12:32;;;;;;;;;;;;;;;16.6;64.50586;101987.7;;;;-81
2022/05/21 06:17:06;;;;;;;;;;;;;;;16.98;63.64844;101989.5;;;;-81
2022/05/21 06:26:27;;;;;;;;;;;;;;;17.69;62.30273;102002.5;;;;-81
2022/05/21 06:31:27;;;;;;;;;;;;;;;18.05;61.58398;102006;;;;-81
2022/05/21 06:36:27;;;;;;;;;;;;;;;18.41;60.875;102021.2;;;;-81
2022/05/21 06:39:51;;;;;;;7.9;1.6;;;;;;;;;;;;;-79
2022/05/21 06:42:02;;;;;;;;;;;;;;;18.76;60.10645;102029.8;;;;-81
2022/05/21 06:47:16;;;;;;;;;;;;;;;19.05;59.4082;102034.6;;;;-82
2022/05/21 07:02:31;;;;;;;;;;;;;;;;;;;;;
2022/05/21 07:09:48;;;;;;;8.5;1.7;;;;;;;;;;;;;-81
2022/05/21 07:12:05;;;;;;;;;;;;;;;19.57;57.78418;102060.1;;;;-81
2022/05/21 07:17:01;;;;;;;;;;;;;;;19.64;57.75879;102059.9;;;;-81
2022/05/21 07:21:57;;;;;;;;;;;;;;;19.83;57.09961;102063;;;;-82
2022/05/21 07:27:07;;;;;;;;;;;;;;;20.07;56.66504;102069.9;;;;-82
2022/05/21 07:32:07;;;;;;;;;;;;;;;20.3;56.05566;102068.1;;;;-82
2022/05/21 07:37:03;;;;;;;;;;;;;;;20.44;55.51465;102069.8;;;;-81
2022/05/21 07:39:54;;;;;;;7.7;1.9;;;;;;;;;;;;;-83
2022/05/21 07:42:46;;;;;;;;;;;;;;;20.49;55.22461;102083.9;;;;-81
2022/05/21 07:47:47;;;;;;;;;;;;;;;20.6;55.19238;102085.7;;;;-83
2022/05/21 07:52:47;;;;;;;;;;;;;;;20.79;54.91895;102093;;;;-82
2022/05/21 08:20:23;;;;;;;;;;;;;;;21.12;54.08008;102126;;;;-83
2022/05/21 08:30:32;;;;;;;;;;;;;;;21.71;52.85742;102122.1;;;;-83
2022/05/21 08:37:15;;;;;;;;;;;;;;;22;52.11426;102130.4;;;;-79
2022/05/21 09:02:17;;;;;;;;;;;;;;;23.06;50.00977;102124.8;;;;-83
2022/05/21 09:07:08;;;;;;;;;;;;;;;23.3;49.23242;102119.1;;;;-85
2022/05/21 09:10:17;;;;;;;8.3;1.8;;;;;;;;;;;;;-85
2022/05/21 09:12:02;;;;;;;;;;;;;;;23.39;48.83887;102127.1;;;;-83
2022/05/21 09:21:18;;;;;;;;;;;;;;;23.3;48.80664;102133.1;;;;-84
2022/05/21 09:26:15;;;;;;;;;;;;;;;23.38;48.66699;102126.7;;;;-83
2022/05/21 09:31:43;;;;;;;;;;;;;;;23.45;48.60449;102129;;;;-83
2022/05/21 09:36:43;;;;;;;;;;;;;;;23.56;48.07617;102125.4;;;;-83
2022/05/21 09:40:07;;;;;;;9.2;1.9;;;;;;;;;;;;;-84
2022/05/21 09:41:42;;;;;;;;;;;;;;;23.77;48.5918;102128.8;;;;-84
2022/05/21 09:46:52;;;;;;;;;;;;;;;23.92;47.90625;102128;;;;-85
2022/05/21 09:51:58;;;;;;;;;;;;;;;24.1;47.59277;102132.8;;;;-86
2022/05/21 09:56:54;;;;;;;;;;;;;;;24.3;47.7627;102147.6;;;;-83
2022/05/21 10:18:27;;;;;;;;;;;;;;;24.76;47.22363;102145.1;;;;-77
2022/05/21 10:23:27;;;;;;;;;;;;;;;24.88;46.43945;102158.8;;;;-78
2022/05/21 10:28:33;;;;;;;;;;;;;;;24.83;45.89258;102158.3;;;;-75
2022/05/21 10:33:13;;;;;;;;;;;;;;;24.82;45.87891;102162.2;;;;-79
2022/05/21 10:38:08;;;;;;;;;;;;;;;24.72;45.83398;102164.2;;;;-77
2022/05/21 10:40:16;;;;;;;8.5;2;;;;;;;;;;;;;-77
2022/05/21 10:43:12;;;;;;;;;;;;;;;24.66;46.2207;102170;;;;-76
2022/05/21 10:49:38;;;;;;;;;;;;;;;24.57;46.22266;102180.4;;;;-77
2022/05/21 10:54:30;;;;;;;;;;;;;;;24.54;46.43848;102181.1;;;;-76
2022/05/21 10:59:40;;;;;;;;;;;;;;;24.62;46.76953;102176.9;;;;-76
2022/05/21 11:04:08;;;;;;;;;;;;;;;24.72;46.58496;102172.9;;;;-84
2022/05/21 11:08:51;;;;;;;;;;;;;;;24.87;46.79688;102179;;;;-83
2022/05/21 11:10:39;;;;;;;9.7;2.5;;;;;;;;;;;;;-84
2022/05/21 11:14:01;;;;;;;;;;;;;;;25.06;46.51465;102173.5;;;;-84
2022/05/21 11:25:53;;;;;;;;;;;;;;;25.44;46.60156;102192.8;;;;-86
2022/05/21 11:30:41;;;;;;;;;;;;;;;25.68;46.64941;102194.8;;;;-84
2022/05/21 11:40:48;;;;;;;10.4;2.9;;;;;;;;;;;;;-82
2022/05/21 11:47:59;;;;;;;;;;;;;;;25.93;46.25781;102204.4;;;;-83
2022/05/21 11:53:05;;;;;;;;;;;;;;;26.03;46.4541;102201;;;;-84
2022/05/21 11:57:49;;;;;;;;;;;;;;;26.03;45.81738;102189.1;;;;-85
2022/05/21 12:14:51;;;;;;;;;;;;;;;26.32;45.97461;102214.7;;;;-79
2022/05/21 12:25:35;;;;;;;;;;;;;;;26.32;45.00195;102206.3;;;;-80
2022/05/21 12:30:29;;;;;;;;;;;;;;;26.3;45.21875;102200;;;;-80
2022/05/21 12:39:56;;;;;;;;;;;;;;;26.27;44.42871;102207.5;;;;-80
2022/05/21 12:50:56;;;;;;;;;;;;;;;26.09;44.30664;102217.6;;;;-84
2022/05/21 12:55:47;;;;;;;;;;;;;;;26.04;44.63672;102203.8;;;;-83
2022/05/21 13:01:02;;;;;;;;;;;;;;;26.08;44.76855;102212.7;;;;-85
2022/05/21 13:12:50;;;;;;;;;;;;;;;25.7;44.10645;102222.4;;;;-80
2022/05/21 13:17:52;;;;;;;;;;;;;;;25.43;44.36914;102222.4;;;;-81
2022/05/21 13:37:38;;;;;;;;;;;;;;;24.5;45.28027;102237.2;;;;-81
2022/05/21 13:40:53;;;;;;;9.6;2.4;;;;;;;;;;;;;-81
2022/05/21 13:42:30;;;;;;;;;;;;;;;24.26;45.52246;102237.7;;;;-80
2022/05/21 13:47:20;;;;;;;;;;;;;;;24.07;45.60742;102240.8;;;;-78
2022/05/21 13:52:29;;;;;;;;;;;;;;;23.91;45.98242;102237.5;;;;-76
2022/05/21 13:57:32;;;;;;;;;;;;;;;23.79;46.21191;102231;;;;-78
2022/05/21 14:02:40;;;;;;;;;;;;;;;23.66;46.40527;102224.3;;;;-77
2022/05/21 14:08:13;;;;;;;;;;;;;;;23.5;46.52734;102231.4;;;;-76
2022/05/21 14:10:56;;;;;;;7;2.4;;;;;;;;;;;;;-78
2022/05/21 14:13:05;;;;;;;;;;;;;;;23.35;46.71875;102224.9;;;;-78
2022/05/21 14:18:01;;;;;;;;;;;;;;;23.27;47.07813;102224.5;;;;-78
2022/05/21 14:22:19;;;;;;;;;;;;;;;23.24;47.21387;102229.3;;;;-76
2022/05/21 14:27:22;;;;;;;;;;;;;;;23.2;46.94531;102231;;;;-77
2022/05/21 14:32:22;;;;;;;;;;;;;;;23.12;47.21289;102218.7;;;;-77
2022/05/21 14:39:05;;;;;;;;;;;;;;;23.04;47.3877;102214.3;;;;-75
2022/05/21 14:40:47;;;;;;;6.3;1.9;;;;;;;;;;;;;-83
2022/05/21 14:44:02;;;;;;;;;;;;;;;23.01;47.37305;102207.2;;;;-85
2022/05/21 14:49:04;;;;;;;;;;;;;;;22.97;47.3457;102208.2;;;;-84
2022/05/21 14:53:53;;;;;;;;;;;;;;;22.94;47.49219;102205.4;;;;-80
2022/05/21 14:59:01;;;;;;;;;;;;;;;22.91;47.61621;102200.3;;;;-79
2022/05/21 15:04:04;;;;;;;;;;;;;;;22.88;47.6582;102202.4;;;;-79
2022/05/21 15:07:52;;;;;;;;;;;;;;;22.86;47.69141;102195.6;;;;-81
2022/05/21 15:11:03;;;;;;;9.6;2.3;;;;;;;;;;;;;-81
2022/05/21 15:12:39;;;;;;;;;;;;;;;22.81;47.54785;102193.1;;;;-79
2022/05/21 15:17:41;;;;;;;;;;;;;;;22.78;47.6709;102195.3;;;;-79
2022/05/21 15:32:43;;;;;;;;;;;;;;;22.74;47.58594;102192.9;;;;-79
2022/05/21 15:37:37;;;;;;;;;;;;;;;22.74;47.5166;102184.4;;;;-80
2022/05/21 15:40:46;;;;;;;9;2.4;;;;;;;;;;;;;-78
2022/05/21 15:42:35;;;;;;;;;;;;;;;22.7;47.34082;102180.9;;;;-80
2022/05/21 16:03:35;;;;;;;;;;;;;;;22.75;47.19629;102175.2;;;;-78
2022/05/21 16:08:24;;;;;;;;;;;;;;;22.82;47.2373;102163.3;;;;-79
2022/05/21 16:10:50;;;;;;;6;1.8;;;;;;;;;;;;;-80
2022/05/21 16:13:34;;;;;;;;;;;;;;;22.96;47.40234;102160.4;;;;-78
2022/05/21 16:17:26;;;;;;;;;;;;;;;23.04;47.10059;102158.9;;;;-80
2022/05/21 16:22:38;;;;;;;;;;;;;;;23.12;47.25781;102157.7;;;;-79
2022/05/21 16:32:07;;;;;;;;;;;;;;;23.08;47.19727;102149.8;;;;-80
2022/05/21 16:40:34;;;;;;;;;;;;;;;22.97;46.89746;102143.1;;;;-79
2022/05/21 16:40:56;;;;;;;5.4;1.4;;;;;;;;;;;;;-78
2022/05/21 16:45:43;;;;;;;;;;;;;;;22.91;46.7998;102137;;;;-79
2022/05/21 16:50:36;;;;;;;;;;;;;;;22.93;46.82422;102139.8;;;;-80
2022/05/21 16:56:01;;;;;;;;;;;;;;;22.97;46.63379;102136.2;;;;-79
2022/05/21 17:01:01;;;;;;;;;;;;;;;22.99;46.57715;102133.7;;;;-80
2022/05/21 17:06:08;;;;;;;;;;;;;;;22.96;46.4375;102138.7;;;;-81
2022/05/21 17:09:55;;;;;;;;;;;;;;;22.92;46.40918;102132.8;;;;-79
2022/05/21 17:10:57;;;;;;;5.3;1.5;;;;;;;;;;;;;-79
2022/05/21 17:14:50;;;;;;;;;;;;;;;22.82;46.07813;102131.3;;;;-80
2022/05/21 17:19:57;;;;;;;;;;;;;;;22.68;46.21191;102132;;;;-80
2022/05/21 17:26:24;;;;;;;;;;;;;;;22.38;46.37598;102128.1;;;;-80
2022/05/21 17:31:25;;;;;;;;;;;;;;;22.12;46.63672;102127.7;;;;-79
2022/05/21 17:36:22;;;;;;;;;;;;;;;21.84;47.12305;102126.3;;;;-81
2022/05/21 17:41:15;;;;;;;6.4;1.7;;;;;;;;;;;;;-80
2022/05/21 17:42:07;;;;;;;;;;;;;;;21.6;47.48828;102121;;;;-79
2022/05/21 17:52:00;;;;;;;;;;;;;;;21.33;47.7334;102122.8;;;;-79
2022/05/21 17:57:47;;;;;;;;;;;;;;;21.15;47.94336;102126.4;;;;-79
2022/05/21 18:02:46;;;;;;;;;;;;;;;20.99;48.25684;102118.2;;;;-79
2022/05/21 18:07:56;;;;;;;;;;;;;;;20.82;48.28516;102121.2;;;;-78
2022/05/21 18:11:03;;;;;;;6.7;1.8;;;;;;;;;;;;;-80
2022/05/21 18:11:40;;;;;;;;;;;;;;;20.7;48.68359;102122.3;;;;-82
2022/05/21 18:21:40;;;;;;;;;;;;;;;20.44;48.9873;102118.4;;;;-83
2022/05/21 18:29:48;;;;;;;;;;;;;;;20.23;49.18066;102121.1;;;;-78
2022/05/21 18:34:27;;;;;;;;;;;;;;;20.09;49.16602;102123;;;;-78
2022/05/21 18:39:38;;;;;;;;;;;;;;;19.95;49.11523;102130.3;;;;-79
2022/05/21 18:41:16;;;;;;;6.4;1.6;;;;;;;;;;;;;-79
2022/05/21 18:49:36;;;;;;;;;;;;;;;19.54;49.44629;102139.4;;;;-79
2022/05/21 18:54:35;;;;;;;;;;;;;;;19.3;49.65918;102132.7;;;;-79
2022/05/21 19:00:02;;;;;;;;;;;;;;;19.06;49.74512;102137.9;;;;-79
2022/05/21 19:05:07;;;;;;;;;;;;;;;18.83;49.73145;102140.5;;;;-79
2022/05/21 19:09:58;;;;;;;;;;;;;;;18.59;49.78418;102131.8;;;;-79
2022/05/21 19:11:10;;;;;;;5.8;1.4;;;;;;;;;;;;;-80
2022/05/21 19:13:53;;;;;;;;;;;;;;;18.4;49.77441;102129.8;;;;-79
2022/05/21 19:23:58;;;;;;;;;;;;;;;17.9;50.07129;102139.6;;;;-80
2022/05/21 19:30:21;;;;;;;;;;;;;;;17.57;50.49902;102144.6;;;;-77
2022/05/21 19:35:32;;;;;;;;;;;;;;;17.31;50.9668;102141.9;;;;-80
2022/05/21 19:41:22;;;;;;;4.3;1.4;;;;;;;;;;;;;-81
2022/05/21 19:44:39;;;;;;;;;;;;;;;16.82;51.78223;102145.6;;;;-82
2022/05/21 19:49:38;;;;;;;;;;;;;;;16.57;52.29688;102146.2;;;;-83
2022/05/21 19:54:37;;;;;;;;;;;;;;;16.33;52.70898;102145.2;;;;-83
2022/05/21 20:04:05;;;;;;;;;;;;;;;15.92;53.56348;102133.5;;;;-80
2022/05/21 20:11:37;;;;;;;4.6;1.5;;;;;;;;;;;;;-81
2022/05/21 20:30:52;;;;;;;;;;;;;;;14.87;55.48438;102130;;;;-83
2022/05/21 20:35:58;;;;;;;;;;;;;;;14.7;56.01563;102120.5;;;;-82
2022/05/21 20:40:55;;;;;;;;;;;;;;;14.53;56.22852;102115.4;;;;-83
2022/05/21 20:41:19;;;;;;;4.6;1.4;;;;;;;;;;;;;-83
2022/05/21 20:46:23;;;;;;;;;;;;;;;14.37;56.74805;102113.2;;;;-81
2022/05/21 20:51:21;;;;;;;;;;;;;;;14.25;56.72168;102110.2;;;;-82
2022/05/21 20:56:25;;;;;;;;;;;;;;;14.13;56.93164;102118;;;;-81
2022/05/21 21:18:09;;;;;;;;;;;;;;;13.65;57.5752;102102.3;;;;-83
2022/05/21 21:22:54;;;;;;;;;;;;;;;13.55;57.77539;102095.9;;;;-83
2022/05/21 21:28:02;;;;;;;;;;;;;;;13.45;58.16602;102096.3;;;;-82
2022/05/21 21:47:33;;;;;;;;;;;;;;;13.06;58.55273;102078.1;;;;-82
2022/05/21 21:52:37;;;;;;;;;;;;;;;12.96;58.56152;102074.5;;;;-82
2022/05/21 21:57:48;;;;;;;;;;;;;;;12.84;58.80176;102074.9;;;;-82
2022/05/21 22:07:45;;;;;;;;;;;;;;;12.66;58.72168;102073.1;;;;-83
2022/05/21 22:11:25;;;;;;;6.7;2.2;;;;;;;;;;;;;-83
2022/05/21 22:53:54;;;;;;;;;;;;;;;12.08;59.86133;102086.9;;;;-82
2022/05/21 22:58:56;;;;;;;;;;;;;;;12.03;60.01172;102083.7;;;;-82
2022/05/21 23:03:41;;;;;;;;;;;;;;;11.96;59.91211;102080.1;;;;-82
2022/05/21 23:30:04;;;;;;;;;;;;;;;11.66;60.01758;102057.3;;;;-82
2022/05/21 23:35:01;;;;;;;;;;;;;;;11.61;60.60156;102055.1;;;;-82
2022/05/21 23:40:01;;;;;;;;;;;;;;;11.57;60.5625;102048.9;;;;-83
2022/05/21 23:41:24;;;;;;;6.1;2.2;;;;;;;;;;;;;-81
2022/05/21 23:45:50;;;;;;;;;;;;;;;11.52;60.54395;102039.2;;;;-83
2022/05/21 23:50:51;;;;;;;;;;;;;;;11.5;60.84277;102039.3;;;;-82
2022/05/21 23:56:00;;;;;;;;;;;;;;;11.48;60.92871;102029.5;;;;-83
